createdAt,value
2022-11-19T00:02:00.831Z,1.20
2022-11-19T00:04:30.226Z,1.20
2022-11-19T00:06:58.424Z,1.20
2022-11-19T00:09:26.557Z,1.10
2022-11-19T00:12:11.927Z,1.10
2022-11-19T00:14:40.014Z,1.10
2022-11-19T00:17:07.999Z,1.20
2022-11-19T00:19:37.375Z,1.10
2022-11-19T00:22:05.386Z,1.10
2022-11-19T00:24:33.390Z,1.10
2022-11-19T00:27:01.385Z,1.10
2022-11-19T00:29:29.371Z,1.00
2022-11-19T00:31:57.398Z,1.00
2022-11-19T00:34:25.408Z,1.00
2022-11-19T00:36:54.739Z,1.00
2022-11-19T00:39:23.020Z,1.00
2022-11-19T00:41:51.139Z,1.00
2022-11-19T00:44:19.169Z,1.00
2022-11-19T00:46:47.231Z,1.00
2022-11-19T00:49:15.242Z,1.00
2022-11-19T00:51:43.487Z,1.00
2022-11-19T00:54:13.001Z,1.00
2022-11-19T00:56:40.814Z,1.00
2022-11-19T00:59:08.985Z,1.00
2022-11-19T01:01:37.098Z,1.00
2022-11-19T01:04:06.143Z,1.00
2022-11-19T01:06:34.643Z,0.90
2022-11-19T01:09:02.679Z,0.90
2022-11-19T01:11:34.383Z,0.90
2022-11-19T01:14:03.465Z,0.90
2022-11-19T01:16:33.829Z,0.80
2022-11-19T01:19:02.570Z,0.80
2022-11-19T01:21:33.120Z,0.70
2022-11-19T01:24:01.836Z,0.70
2022-11-19T01:26:31.520Z,0.70
2022-11-19T01:28:59.579Z,0.70
2022-11-19T01:31:29.495Z,0.70
2022-11-19T01:33:58.000Z,0.60
2022-11-19T01:36:27.712Z,0.60
2022-11-19T01:38:56.084Z,0.60
2022-11-19T01:41:25.972Z,0.60
2022-11-19T01:43:59.020Z,0.60
2022-11-19T01:46:29.166Z,0.60
2022-11-19T01:49:01.570Z,0.60
2022-11-19T01:51:32.847Z,0.60
2022-11-19T01:54:06.294Z,0.60
2022-11-19T01:56:34.431Z,0.50
2022-11-19T01:59:08.738Z,0.50
2022-11-19T02:01:36.905Z,0.50
2022-11-19T02:04:06.098Z,0.50
2022-11-19T02:06:35.443Z,0.50
2022-11-19T02:09:03.612Z,0.50
2022-11-19T02:11:45.481Z,0.50
2022-11-19T02:14:29.314Z,0.40
2022-11-19T02:17:07.289Z,0.40
2022-11-19T02:19:55.223Z,0.40
2022-11-19T02:22:42.493Z,0.40
2022-11-19T02:25:19.171Z,0.40
2022-11-19T02:28:02.249Z,0.30
2022-11-19T02:30:36.705Z,0.30
2022-11-19T02:33:08.906Z,0.30
2022-11-19T02:35:46.099Z,0.30
2022-11-19T02:38:22.629Z,0.20
2022-11-19T02:40:57.088Z,0.20
2022-11-19T02:43:31.247Z,0.20
2022-11-19T02:46:06.120Z,0.20
2022-11-19T02:48:38.258Z,0.20
2022-11-19T02:51:07.825Z,0.20
2022-11-19T02:53:35.792Z,0.20
2022-11-19T02:56:13.893Z,0.10
2022-11-19T02:59:03.432Z,0.10
2022-11-19T03:01:52.464Z,0.10
2022-11-19T03:04:32.635Z,0.10
2022-11-19T03:07:05.499Z,0.00
2022-11-19T03:09:36.742Z,0.00
2022-11-19T03:12:11.976Z,0.00
2022-11-19T03:15:06.843Z,0.00
2022-11-19T03:17:51.532Z,0.00
2022-11-19T03:20:24.980Z,0.00
2022-11-19T03:22:58.212Z,-0.10
2022-11-19T03:25:29.871Z,0.00
2022-11-19T03:28:02.306Z,0.00
2022-11-19T03:30:31.768Z,0.00
2022-11-19T03:33:04.925Z,0.00
2022-11-19T03:35:37.524Z,-0.10
2022-11-19T03:38:08.569Z,-0.10
2022-11-19T03:40:37.720Z,-0.10
2022-11-19T03:43:10.503Z,-0.10
2022-11-19T03:45:43.036Z,-0.10
2022-11-19T03:48:13.614Z,-0.20
2022-11-19T03:50:48.496Z,-0.20
2022-11-19T03:53:16.731Z,-0.20
2022-11-19T03:55:48.904Z,-0.20
2022-11-19T03:58:16.953Z,-0.20
2022-11-19T04:00:44.940Z,-0.20
2022-11-19T04:03:14.310Z,-0.20
2022-11-19T04:05:42.386Z,-0.20
2022-11-19T04:08:10.534Z,-0.20
2022-11-19T04:10:38.691Z,-0.20
2022-11-19T04:13:06.676Z,-0.20
2022-11-19T04:15:34.698Z,-0.20
2022-11-19T04:18:02.775Z,-0.30
2022-11-19T04:20:32.224Z,-0.30
2022-11-19T04:23:00.226Z,-0.30
2022-11-19T04:25:28.202Z,-0.30
2022-11-19T04:27:56.346Z,-0.20
2022-11-19T04:30:24.346Z,-0.30
2022-11-19T04:32:52.343Z,-0.30
2022-11-19T04:35:21.862Z,-0.30
2022-11-19T04:37:51.015Z,-0.30
2022-11-19T04:40:19.103Z,-0.30
2022-11-19T04:42:47.107Z,-0.30
2022-11-19T04:45:15.214Z,-0.30
2022-11-19T04:47:43.192Z,-0.30
2022-11-19T04:50:11.422Z,-0.30
2022-11-19T04:52:41.139Z,-0.30
2022-11-19T04:55:11.852Z,-0.30
2022-11-19T04:57:40.157Z,-0.30
2022-11-19T05:00:09.422Z,-0.30
2022-11-19T05:02:37.436Z,-0.30
2022-11-19T05:05:05.876Z,-0.40
2022-11-19T05:07:33.896Z,-0.30
2022-11-19T05:10:01.976Z,-0.30
2022-11-19T05:12:31.366Z,-0.30
2022-11-19T05:14:59.325Z,-0.30
2022-11-19T05:17:27.308Z,-0.30
2022-11-19T05:19:55.343Z,-0.30
2022-11-19T05:22:23.331Z,-0.30
2022-11-19T05:24:51.422Z,-0.30
2022-11-19T05:27:19.515Z,-0.30
2022-11-19T05:29:48.880Z,-0.30
2022-11-19T05:32:16.947Z,-0.30
2022-11-19T05:34:44.898Z,-0.30
2022-11-19T05:37:12.904Z,-0.30
2022-11-19T05:39:40.923Z,-0.30
2022-11-19T05:42:09.042Z,-0.30
2022-11-19T05:44:37.076Z,-0.30
2022-11-19T05:47:06.492Z,-0.30
2022-11-19T05:49:34.506Z,-0.40
2022-11-19T05:52:02.491Z,-0.40
2022-11-19T05:54:30.525Z,-0.40
2022-11-19T05:56:58.581Z,-0.40
2022-11-19T05:59:26.667Z,-0.40
2022-11-19T06:01:54.654Z,-0.40
2022-11-19T06:04:24.054Z,-0.50
2022-11-19T06:06:52.561Z,-0.40
2022-11-19T06:09:20.876Z,-0.40
2022-11-19T06:11:50.147Z,-0.40
2022-11-19T06:14:20.340Z,-0.40
2022-11-19T06:16:48.546Z,-0.50
2022-11-19T06:19:16.756Z,-0.50
2022-11-19T06:21:46.632Z,-0.50
2022-11-19T06:24:14.885Z,-0.50
2022-11-19T06:26:43.600Z,-0.50
2022-11-19T06:29:13.750Z,-0.50
2022-11-19T06:31:41.880Z,-0.50
2022-11-19T06:34:10.501Z,-0.50
2022-11-19T06:36:42.004Z,-0.50
2022-11-19T06:39:13.200Z,-0.50
2022-11-19T06:41:41.218Z,-0.50
2022-11-19T06:44:09.353Z,-0.50
2022-11-19T06:46:38.333Z,-0.50
2022-11-19T06:49:07.121Z,-0.50
2022-11-19T06:51:35.175Z,-0.50
2022-11-19T06:54:03.178Z,-0.50
2022-11-19T06:56:32.522Z,-0.40
2022-11-19T06:59:00.491Z,-0.40
2022-11-19T07:01:28.522Z,-0.40
2022-11-19T07:03:56.499Z,-0.40
2022-11-19T07:06:24.479Z,-0.40
2022-11-19T07:08:52.511Z,-0.30
2022-11-19T07:11:29.190Z,-0.30
2022-11-19T07:13:59.785Z,-0.30
2022-11-19T07:16:30.606Z,-0.40
2022-11-19T07:18:59.801Z,-0.40
2022-11-19T07:21:28.684Z,-0.30
2022-11-19T07:23:57.126Z,-0.30
2022-11-19T07:26:25.211Z,-0.20
2022-11-19T07:28:53.347Z,-0.20
2022-11-19T07:31:24.546Z,-0.10
2022-11-19T07:33:52.561Z,-0.10
2022-11-19T07:36:20.656Z,0.10
2022-11-19T07:38:50.527Z,0.10
2022-11-19T07:41:36.025Z,0.20
2022-11-19T07:44:04.068Z,0.30
2022-11-19T07:46:33.466Z,0.40
2022-11-19T07:49:01.759Z,0.30
2022-11-19T07:51:29.751Z,0.30
2022-11-19T07:53:57.811Z,0.30
2022-11-19T07:56:25.824Z,0.30
2022-11-19T07:58:53.863Z,0.30
2022-11-19T08:01:26.794Z,0.40
2022-11-19T08:03:57.004Z,0.40
2022-11-19T08:06:27.328Z,0.40
2022-11-19T08:08:56.079Z,0.50
2022-11-19T08:11:24.844Z,0.60
2022-11-19T08:13:53.226Z,0.70
2022-11-19T08:16:35.782Z,0.70
2022-11-19T08:19:07.780Z,0.60
2022-11-19T08:21:35.883Z,0.50
2022-11-19T08:24:04.320Z,0.60
2022-11-19T08:26:32.317Z,0.60
2022-11-19T08:29:00.364Z,0.70
2022-11-19T08:31:28.399Z,0.80
2022-11-19T08:33:56.433Z,1.00
2022-11-19T08:36:25.847Z,1.10
2022-11-19T08:38:53.890Z,1.30
2022-11-19T08:41:39.641Z,1.40
2022-11-19T08:44:07.655Z,1.50
2022-11-19T08:46:35.663Z,1.70
2022-11-19T08:49:03.702Z,1.80
2022-11-19T08:51:33.097Z,1.80
2022-11-19T08:54:01.201Z,1.80
2022-11-19T08:56:29.270Z,1.70
2022-11-19T08:59:02.256Z,1.60
2022-11-19T09:01:31.010Z,1.50
2022-11-19T09:03:59.181Z,1.40
2022-11-19T09:06:27.386Z,1.20
2022-11-19T09:08:58.315Z,1.10
2022-11-19T09:11:26.731Z,1.10
2022-11-19T09:13:54.784Z,1.10
2022-11-19T09:16:22.820Z,1.00
2022-11-19T09:18:51.098Z,0.90
2022-11-19T09:21:19.187Z,0.90
2022-11-19T09:23:47.194Z,0.70
2022-11-19T09:26:19.013Z,0.60
2022-11-19T09:28:48.017Z,0.60
2022-11-19T09:31:18.178Z,0.70
2022-11-19T09:33:49.643Z,0.70
2022-11-19T09:36:19.415Z,0.60
2022-11-19T09:38:48.276Z,0.60
2022-11-19T09:41:51.034Z,0.60
2022-11-19T09:44:47.831Z,0.50
2022-11-19T09:47:27.059Z,0.50
2022-11-19T09:50:06.258Z,0.60
2022-11-19T09:52:38.545Z,0.80
2022-11-19T09:55:07.567Z,1.00
2022-11-19T09:57:44.279Z,1.30
2022-11-19T10:00:18.927Z,1.40
2022-11-19T10:02:46.993Z,1.40
2022-11-19T10:05:16.754Z,1.40
2022-11-19T10:08:00.304Z,1.50
2022-11-19T10:10:37.033Z,1.50
2022-11-19T10:13:33.171Z,1.50
2022-11-19T10:16:13.190Z,1.50
2022-11-19T10:18:52.607Z,1.50
2022-11-19T10:21:29.154Z,1.40
2022-11-19T10:24:07.155Z,1.40
2022-11-19T10:26:37.165Z,1.40
2022-11-19T10:29:16.282Z,1.20
2022-11-19T10:31:47.290Z,1.20
2022-11-19T10:34:20.257Z,1.20
2022-11-19T10:36:51.496Z,1.10
2022-11-19T10:39:24.746Z,1.00
2022-11-19T10:41:57.266Z,1.00
2022-11-19T10:44:40.379Z,0.90
2022-11-19T10:47:15.368Z,0.90
2022-11-19T10:49:44.473Z,0.90
2022-11-19T10:52:22.463Z,0.80
2022-11-19T10:54:53.434Z,0.80
2022-11-19T10:57:23.088Z,0.80
2022-11-19T10:59:53.376Z,0.90
2022-11-19T11:02:28.348Z,0.80
2022-11-19T11:05:10.294Z,0.80
2022-11-19T11:07:50.885Z,0.90
2022-11-19T11:10:31.918Z,1.00
2022-11-19T11:13:25.882Z,1.00
2022-11-19T11:15:55.563Z,1.10
2022-11-19T11:18:28.429Z,1.10
2022-11-19T11:20:57.535Z,1.00
2022-11-19T11:23:27.711Z,1.10
2022-11-19T11:26:03.163Z,1.00
2022-11-19T11:28:31.225Z,1.00
2022-11-19T11:31:02.875Z,1.00
2022-11-19T11:33:34.950Z,0.90
2022-11-19T11:36:07.095Z,0.90
2022-11-19T11:38:42.356Z,0.80
2022-11-19T11:42:01.897Z,0.90
2022-11-19T11:44:03.069Z,1.00
2022-11-19T11:46:42.987Z,1.30
2022-11-19T11:49:25.910Z,1.60
2022-11-19T11:52:14.393Z,2.20
2022-11-19T11:54:57.037Z,2.50
2022-11-19T11:57:27.326Z,2.60
2022-11-19T11:59:55.886Z,2.50
2022-11-19T12:02:30.397Z,2.40
2022-11-19T12:05:01.998Z,2.20
2022-11-19T12:08:03.572Z,2.00
2022-11-19T12:10:40.821Z,1.80
2022-11-19T12:13:44.649Z,1.60
2022-11-19T12:16:19.908Z,1.40
2022-11-19T12:19:01.288Z,1.20
2022-11-19T12:21:37.862Z,1.20
2022-11-19T12:24:30.397Z,1.10
2022-11-19T12:27:09.780Z,0.90
2022-11-19T12:29:47.541Z,0.80
2022-11-19T12:32:27.915Z,0.60
2022-11-19T12:35:19.079Z,0.60
2022-11-19T12:38:01.916Z,0.60
2022-11-19T12:40:41.478Z,0.70
2022-11-19T12:43:21.313Z,0.70
2022-11-19T12:46:02.353Z,0.60
2022-11-19T12:48:51.088Z,0.60
2022-11-19T12:51:36.397Z,0.50
2022-11-19T12:54:34.678Z,0.50
2022-11-19T12:57:21.148Z,0.60
2022-11-19T13:00:06.416Z,0.70
2022-11-19T13:02:46.432Z,0.70
2022-11-19T13:05:19.562Z,0.60
2022-11-19T13:07:53.834Z,0.60
2022-11-19T13:10:25.775Z,0.60
2022-11-19T13:12:57.959Z,0.60
2022-11-19T13:15:31.194Z,0.50
2022-11-19T13:18:03.316Z,0.50
2022-11-19T13:20:41.451Z,0.40
2022-11-19T13:23:18.621Z,0.30
2022-11-19T13:25:52.779Z,0.20
2022-11-19T13:28:25.906Z,0.20
2022-11-19T13:30:56.195Z,0.20
2022-11-19T13:33:29.141Z,0.20
2022-11-19T13:36:03.437Z,0.20
2022-11-19T13:38:43.755Z,0.20
2022-11-19T13:41:15.466Z,0.20
2022-11-19T13:44:02.120Z,0.20
2022-11-19T13:46:35.686Z,0.10
2022-11-19T13:49:07.629Z,0.00
2022-11-19T13:51:40.313Z,-0.10
2022-11-19T13:54:10.691Z,-0.20
2022-11-19T13:56:41.724Z,-0.20
2022-11-19T13:59:22.724Z,-0.20
2022-11-19T14:02:10.442Z,-0.20
2022-11-19T14:05:10.749Z,-0.20
2022-11-19T14:08:01.195Z,-0.20
2022-11-19T14:10:37.280Z,-0.40
2022-11-19T14:13:24.162Z,-0.40
2022-11-19T14:16:23.778Z,-0.50
2022-11-19T14:19:12.873Z,-0.50
2022-11-19T14:22:06.608Z,-0.60
2022-11-19T14:25:14.459Z,-0.60
2022-11-19T14:27:44.746Z,-0.70
2022-11-19T14:30:16.345Z,-0.70
2022-11-19T14:32:49.802Z,-0.70
2022-11-19T14:35:43.100Z,-0.80
2022-11-19T14:38:36.724Z,-0.90
2022-11-19T14:41:09.140Z,-1.00
2022-11-19T14:44:10.285Z,-0.90
2022-11-19T14:46:47.729Z,-1.00
2022-11-19T14:49:34.271Z,-1.00
2022-11-19T14:52:03.527Z,-1.00
2022-11-19T14:54:34.335Z,-1.10
2022-11-19T14:57:15.002Z,-1.10
2022-11-19T14:59:48.624Z,-1.20
2022-11-19T15:02:27.536Z,-1.10
2022-11-19T15:05:04.769Z,-1.10
2022-11-19T15:07:39.845Z,-1.20
2022-11-19T15:10:34.094Z,-1.20
2022-11-19T15:13:22.724Z,-1.20
2022-11-19T15:15:58.556Z,-1.20
2022-11-19T15:19:12.124Z,-1.20
2022-11-19T15:22:19.898Z,-1.20
2022-11-19T15:25:13.905Z,-1.30
2022-11-19T15:28:03.380Z,-1.30
2022-11-19T15:30:43.485Z,-1.30
2022-11-19T15:33:38.150Z,-1.40
2022-11-19T15:36:26.462Z,-1.40
2022-11-19T15:38:59.097Z,-1.30
2022-11-19T15:41:29.308Z,-1.30
2022-11-19T15:44:00.351Z,-1.30
2022-11-19T15:46:38.715Z,-1.30
2022-11-19T15:49:15.528Z,-1.40
2022-11-19T15:52:00.302Z,-1.40
2022-11-19T15:54:30.390Z,-1.40
2022-11-19T15:57:01.683Z,-1.40
2022-11-19T15:59:31.179Z,-1.40
2022-11-19T16:02:00.103Z,-1.40
2022-11-19T16:04:36.687Z,-1.40
2022-11-19T16:07:07.053Z,-1.40
2022-11-19T16:09:35.878Z,-1.40
2022-11-19T16:12:21.856Z,-1.40
2022-11-19T16:15:11.947Z,-1.50
2022-11-19T16:17:47.062Z,-1.40
2022-11-19T16:20:22.244Z,-1.50
2022-11-19T16:22:58.406Z,-1.50
2022-11-19T16:25:32.128Z,-1.50
2022-11-19T16:28:03.411Z,-1.50
2022-11-19T16:30:46.269Z,-1.50
2022-11-19T16:33:18.455Z,-1.50
2022-11-19T16:35:52.583Z,-1.50
2022-11-19T16:38:27.744Z,-1.50
2022-11-19T16:41:14.164Z,-1.50
2022-11-19T16:43:44.683Z,-1.50
2022-11-19T16:46:15.132Z,-1.50
2022-11-19T16:48:58.414Z,-1.40
2022-11-19T16:51:37.583Z,-1.50
2022-11-19T16:54:07.524Z,-1.40
2022-11-19T16:56:44.451Z,-1.40
2022-11-19T16:59:20.300Z,-1.40
2022-11-19T17:01:57.063Z,-1.40
2022-11-19T17:04:29.771Z,-1.40
2022-11-19T17:07:00.050Z,-1.40
2022-11-19T17:09:35.716Z,-1.40
2022-11-19T17:12:18.849Z,-1.40
2022-11-19T17:14:50.837Z,-1.40
2022-11-19T17:17:35.571Z,-1.40
2022-11-19T17:20:40.102Z,-1.50
2022-11-19T17:23:15.172Z,-1.50
2022-11-19T17:25:48.246Z,-1.40
2022-11-19T17:28:26.514Z,-1.50
2022-11-19T17:30:56.232Z,-1.40
2022-11-19T17:33:24.986Z,-1.40
2022-11-19T17:35:53.193Z,-1.40
2022-11-19T17:38:26.967Z,-1.40
2022-11-19T17:40:57.497Z,-1.50
2022-11-19T17:43:48.233Z,-1.50
2022-11-19T17:46:16.514Z,-1.50
2022-11-19T17:48:46.200Z,-1.50
2022-11-19T17:51:15.528Z,-1.50
2022-11-19T17:53:45.034Z,-1.50
2022-11-19T17:56:17.437Z,-1.50
2022-11-19T17:58:45.426Z,-1.50
2022-11-19T18:01:14.576Z,-1.50
2022-11-19T18:03:42.980Z,-1.60
2022-11-19T18:06:13.102Z,-1.60
2022-11-19T18:08:42.097Z,-1.60
2022-11-19T18:11:14.491Z,-1.60
2022-11-19T18:13:44.217Z,-1.60
2022-11-19T18:16:15.432Z,-1.60
2022-11-19T18:18:43.601Z,-1.50
2022-11-19T18:21:13.259Z,-1.60
2022-11-19T18:23:41.828Z,-1.60
2022-11-19T18:26:12.701Z,-1.50
2022-11-19T18:28:43.739Z,-1.60
2022-11-19T18:31:17.279Z,-1.60
2022-11-19T18:33:47.773Z,-1.60
2022-11-19T18:36:16.555Z,-1.60
2022-11-19T18:38:44.633Z,-1.60
2022-11-19T18:41:15.937Z,-1.60
2022-11-19T18:44:01.466Z,-1.60
2022-11-19T18:46:29.446Z,-1.60
2022-11-19T18:48:57.480Z,-1.60
2022-11-19T18:51:27.243Z,-1.60
2022-11-19T18:53:55.282Z,-1.60
2022-11-19T18:56:24.650Z,-1.60
2022-11-19T18:58:53.268Z,-1.50
2022-11-19T19:01:23.751Z,-1.50
2022-11-19T19:03:53.072Z,-1.50
2022-11-19T19:06:23.049Z,-1.50
2022-11-19T19:08:51.225Z,-1.50
2022-11-19T19:11:36.782Z,-1.50
2022-11-19T19:14:06.307Z,-1.50
2022-11-19T19:16:35.040Z,-1.50
2022-11-19T19:19:03.364Z,-1.50
2022-11-19T19:21:31.921Z,-1.50
2022-11-19T19:24:00.037Z,-1.50
2022-11-19T19:26:28.119Z,-1.50
2022-11-19T19:28:56.349Z,-1.40
2022-11-19T19:31:26.007Z,-1.40
2022-11-19T19:33:54.365Z,-1.50
2022-11-19T19:36:22.869Z,-1.40
2022-11-19T19:38:51.385Z,-1.40
2022-11-19T19:41:22.025Z,-1.40
2022-11-19T19:43:50.856Z,-1.50
2022-11-19T19:46:20.622Z,-1.50
2022-11-19T19:48:52.670Z,-1.50
2022-11-19T19:51:22.137Z,-1.50
2022-11-19T19:53:50.211Z,-1.50
2022-11-19T19:56:20.847Z,-1.50
2022-11-19T19:58:50.723Z,-1.50
2022-11-19T20:01:20.451Z,-1.50
2022-11-19T20:03:54.486Z,-1.50
2022-11-19T20:06:24.431Z,-1.50
2022-11-19T20:08:52.347Z,-1.50
2022-11-19T20:11:24.488Z,-1.50
2022-11-19T20:13:53.412Z,-1.50
2022-11-19T20:16:23.375Z,-1.50
2022-11-19T20:18:54.299Z,-1.50
2022-11-19T20:21:24.650Z,-1.50
2022-11-19T20:23:53.413Z,-1.50
2022-11-19T20:26:23.803Z,-1.60
2022-11-19T20:28:56.463Z,-1.50
2022-11-19T20:31:24.955Z,-1.60
2022-11-19T20:33:55.848Z,-1.60
2022-11-19T20:36:24.850Z,-1.50
2022-11-19T20:38:53.501Z,-1.50
2022-11-19T20:41:40.605Z,-1.50
2022-11-19T20:44:21.395Z,-1.50
2022-11-19T20:46:51.436Z,-1.50
2022-11-19T20:49:23.678Z,-1.50
2022-11-19T20:51:52.761Z,-1.50
2022-11-19T20:54:22.239Z,-1.50
2022-11-19T20:56:51.419Z,-1.40
2022-11-19T20:59:20.455Z,-1.50
2022-11-19T21:01:52.051Z,-1.50
2022-11-19T21:04:22.123Z,-1.50
2022-11-19T21:06:50.634Z,-1.50
2022-11-19T21:09:19.649Z,-1.50
2022-11-19T21:11:48.633Z,-1.50
2022-11-19T21:14:16.660Z,-1.50
2022-11-19T21:16:44.904Z,-1.50
2022-11-19T21:19:13.523Z,-1.50
2022-11-19T21:21:44.145Z,-1.50
2022-11-19T21:24:12.672Z,-1.50
2022-11-19T21:26:40.696Z,-1.50
2022-11-19T21:29:08.724Z,-1.50
2022-11-19T21:31:42.094Z,-1.60
2022-11-19T21:34:11.917Z,-1.50
2022-11-19T21:36:42.827Z,-1.50
2022-11-19T21:39:12.024Z,-1.60
2022-11-19T21:41:40.268Z,-1.50
2022-11-19T21:44:08.334Z,-1.50
2022-11-19T21:46:36.951Z,-1.50
2022-11-19T21:49:05.270Z,-1.50
2022-11-19T21:51:33.381Z,-1.50
2022-11-19T21:54:02.749Z,-1.50
2022-11-19T21:56:35.463Z,-1.50
2022-11-19T21:59:06.424Z,-1.50
2022-11-19T22:01:34.539Z,-1.50
2022-11-19T22:04:02.608Z,-1.50
2022-11-19T22:06:31.669Z,-1.50
2022-11-19T22:08:59.715Z,-1.50
2022-11-19T22:11:32.389Z,-1.50
2022-11-19T22:14:02.668Z,-1.50
2022-11-19T22:16:31.826Z,-1.50
2022-11-19T22:18:59.858Z,-1.50
2022-11-19T22:21:29.419Z,-1.50
2022-11-19T22:23:57.820Z,-1.50
2022-11-19T22:26:26.351Z,-1.50
2022-11-19T22:28:55.867Z,-1.50
2022-11-19T22:31:23.789Z,-1.50
2022-11-19T22:33:53.047Z,-1.50
2022-11-19T22:36:22.527Z,-1.50
2022-11-19T22:38:51.061Z,-1.50
2022-11-19T22:41:21.555Z,-1.60
2022-11-19T22:43:50.206Z,-1.50
2022-11-19T22:46:20.321Z,-1.50
2022-11-19T22:48:48.724Z,-1.50
2022-11-19T22:51:18.759Z,-1.50
2022-11-19T22:53:47.266Z,-1.50
2022-11-19T22:56:17.933Z,-1.50
2022-11-19T22:58:45.915Z,-1.50
2022-11-19T23:01:17.560Z,-1.50
2022-11-19T23:03:47.329Z,-1.50
2022-11-19T23:06:15.592Z,-1.50
2022-11-19T23:08:43.839Z,-1.50
2022-11-19T23:11:12.611Z,-1.50
2022-11-19T23:13:41.992Z,-1.40
2022-11-19T23:16:12.330Z,-1.50
2022-11-19T23:18:42.553Z,-1.50
2022-11-19T23:21:14.808Z,-1.50
2022-11-19T23:23:42.920Z,-1.50
2022-11-19T23:26:12.628Z,-1.50
2022-11-19T23:28:41.148Z,-1.50
2022-11-19T23:31:11.039Z,-1.50
2022-11-19T23:33:39.007Z,-1.50
2022-11-19T23:36:09.124Z,-1.50
2022-11-19T23:38:39.592Z,-1.50
2022-11-19T23:41:09.823Z,-1.50
2022-11-19T23:43:38.710Z,-1.50
2022-11-19T23:46:09.611Z,-1.50
2022-11-19T23:48:39.019Z,-1.50
2022-11-19T23:51:09.241Z,-1.50
2022-11-19T23:53:38.872Z,-1.50
2022-11-19T23:56:07.896Z,-1.50
2022-11-19T23:58:36.736Z,-1.50
